sensor_id;sensor_type;location;lat;lon;timestamp;temperature;humidity
35445;DHT22;21562;49.476;6.086;2024-03-08T00:01:49;7.80;1.00
35445;DHT22;21562;49.476;6.086;2024-03-08T00:04:15;8.00;1.00
35445;DHT22;21562;49.476;6.086;2024-03-08T00:06:41;7.70;1.00
35445;DHT22;21562;49.476;6.086;2024-03-08T00:09:07;7.70;1.00
35445;DHT22;21562;49.476;6.086;2024-03-08T00:11:35;7.10;11.40
35445;DHT22;21562;49.476;6.086;2024-03-08T00:14:01;7.00;18.20
35445;DHT22;21562;49.476;6.086;2024-03-08T00:16:27;7.10;12.40
35445;DHT22;21562;49.476;6.086;2024-03-08T00:18:53;7.30;8.80
35445;DHT22;21562;49.476;6.086;2024-03-08T00:21:18;7.50;1.00
35445;DHT22;21562;49.476;6.086;2024-03-08T00:23:44;7.60;1.00
35445;DHT22;21562;49.476;6.086;2024-03-08T00:26:10;7.60;1.00
35445;DHT22;21562;49.476;6.086;2024-03-08T00:28:35;7.50;1.30
35445;DHT22;21562;49.476;6.086;2024-03-08T00:31:01;7.40;1.00
35445;DHT22;21562;49.476;6.086;2024-03-08T00:33:27;7.50;1.00
35445;DHT22;21562;49.476;6.086;2024-03-08T00:35:53;7.70;1.00
35445;DHT22;21562;49.476;6.086;2024-03-08T00:38:19;7.60;1.00
35445;DHT22;21562;49.476;6.086;2024-03-08T00:40:45;7.10;7.20
35445;DHT22;21562;49.476;6.086;2024-03-08T00:43:11;7.00;13.00
35445;DHT22;21562;49.476;6.086;2024-03-08T00:45:37;7.20;9.20
35445;DHT22;21562;49.476;6.086;2024-03-08T00:48:04;7.00;13.30
35445;DHT22;21562;49.476;6.086;2024-03-08T00:50:31;7.10;16.40
35445;DHT22;21562;49.476;6.086;2024-03-08T00:52:56;6.80;18.50
35445;DHT22;21562;49.476;6.086;2024-03-08T00:55:22;6.90;23.50
35445;DHT22;21562;49.476;6.086;2024-03-08T00:57:48;7.20;16.30
35445;DHT22;21562;49.476;6.086;2024-03-08T01:00:14;7.40;1.00
35445;DHT22;21562;49.476;6.086;2024-03-08T01:02:40;7.40;3.80
35445;DHT22;21562;49.476;6.086;2024-03-08T01:05:06;7.10;5.80
35445;DHT22;21562;49.476;6.086;2024-03-08T01:07:35;7.30;7.40
35445;DHT22;21562;49.476;6.086;2024-03-08T01:10:04;7.30;3.10
35445;DHT22;21562;49.476;6.086;2024-03-08T01:12:35;7.20;1.00
35445;DHT22;21562;49.476;6.086;2024-03-08T01:15:00;7.10;13.30
35445;DHT22;21562;49.476;6.086;2024-03-08T01:17:26;7.10;8.50
35445;DHT22;21562;49.476;6.086;2024-03-08T01:19:52;7.00;6.50
35445;DHT22;21562;49.476;6.086;2024-03-08T01:22:19;6.70;23.30
35445;DHT22;21562;49.476;6.086;2024-03-08T01:24:45;7.00;23.00
35445;DHT22;21562;49.476;6.086;2024-03-08T01:27:10;7.10;8.80
35445;DHT22;21562;49.476;6.086;2024-03-08T01:29:37;7.00;9.80
35445;DHT22;21562;49.476;6.086;2024-03-08T01:32:03;7.10;8.10
35445;DHT22;21562;49.476;6.086;2024-03-08T01:34:29;7.40;6.70
35445;DHT22;21562;49.476;6.086;2024-03-08T01:36:55;7.60;1.00
35445;DHT22;21562;49.476;6.086;2024-03-08T01:39:22;7.90;1.00
35445;DHT22;21562;49.476;6.086;2024-03-08T01:41:47;7.60;1.00
35445;DHT22;21562;49.476;6.086;2024-03-08T01:44:13;7.50;1.00
35445;DHT22;21562;49.476;6.086;2024-03-08T01:46:44;7.20;7.70
35445;DHT22;21562;49.476;6.086;2024-03-08T01:49:11;7.30;1.00
35445;DHT22;21562;49.476;6.086;2024-03-08T01:51:39;7.30;7.30
35445;DHT22;21562;49.476;6.086;2024-03-08T01:54:06;6.90;11.20
35445;DHT22;21562;49.476;6.086;2024-03-08T01:56:32;6.70;11.20
35445;DHT22;21562;49.476;6.086;2024-03-08T01:58:59;6.70;28.00
35445;DHT22;21562;49.476;6.086;2024-03-08T02:01:25;6.80;14.60
35445;DHT22;21562;49.476;6.086;2024-03-08T02:03:51;7.20;12.00
35445;DHT22;21562;49.476;6.086;2024-03-08T02:06:16;7.10;1.00
35445;DHT22;21562;49.476;6.086;2024-03-08T02:08:43;7.30;6.30
35445;DHT22;21562;49.476;6.086;2024-03-08T02:11:10;7.40;2.90
35445;DHT22;21562;49.476;6.086;2024-03-08T02:13:36;7.20;2.10
35445;DHT22;21562;49.476;6.086;2024-03-08T02:16:02;7.30;1.00
35445;DHT22;21562;49.476;6.086;2024-03-08T02:18:31;7.20;1.00
35445;DHT22;21562;49.476;6.086;2024-03-08T02:21:00;7.30;2.80
35445;DHT22;21562;49.476;6.086;2024-03-08T02:23:26;7.30;1.00
35445;DHT22;21562;49.476;6.086;2024-03-08T02:25:53;7.10;5.30
35445;DHT22;21562;49.476;6.086;2024-03-08T02:28:19;7.10;1.00
35445;DHT22;21562;49.476;6.086;2024-03-08T02:30:46;6.70;10.50
35445;DHT22;21562;49.476;6.086;2024-03-08T02:33:14;6.60;18.60
35445;DHT22;21562;49.476;6.086;2024-03-08T02:35:43;6.80;17.80
35445;DHT22;21562;49.476;6.086;2024-03-08T02:38:13;7.10;10.30
35445;DHT22;21562;49.476;6.086;2024-03-08T02:40:42;7.30;2.20
35445;DHT22;21562;49.476;6.086;2024-03-08T02:43:09;7.40;1.00
35445;DHT22;21562;49.476;6.086;2024-03-08T02:45:35;7.50;1.00
35445;DHT22;21562;49.476;6.086;2024-03-08T02:48:01;7.40;1.00
35445;DHT22;21562;49.476;6.086;2024-03-08T02:50:26;7.40;1.00
35445;DHT22;21562;49.476;6.086;2024-03-08T02:52:52;7.20;1.00
35445;DHT22;21562;49.476;6.086;2024-03-08T02:55:18;7.30;1.40
35445;DHT22;21562;49.476;6.086;2024-03-08T02:57:45;7.40;1.00
35445;DHT22;21562;49.476;6.086;2024-03-08T03:00:13;7.30;1.00
35445;DHT22;21562;49.476;6.086;2024-03-08T03:02:39;7.30;1.00
35445;DHT22;21562;49.476;6.086;2024-03-08T03:05:05;7.30;1.00
35445;DHT22;21562;49.476;6.086;2024-03-08T03:07:34;7.50;1.00
35445;DHT22;21562;49.476;6.086;2024-03-08T03:10:00;7.60;1.00
35445;DHT22;21562;49.476;6.086;2024-03-08T03:12:30;7.70;1.00
35445;DHT22;21562;49.476;6.086;2024-03-08T03:14:57;7.70;1.00
35445;DHT22;21562;49.476;6.086;2024-03-08T03:17:23;7.70;1.00
35445;DHT22;21562;49.476;6.086;2024-03-08T03:19:50;7.80;1.00
35445;DHT22;21562;49.476;6.086;2024-03-08T03:22:17;7.40;1.00
35445;DHT22;21562;49.476;6.086;2024-03-08T03:24:44;7.00;1.00
35445;DHT22;21562;49.476;6.086;2024-03-08T03:27:09;7.00;1.00
35445;DHT22;21562;49.476;6.086;2024-03-08T03:29:39;7.00;1.00
35445;DHT22;21562;49.476;6.086;2024-03-08T03:32:05;6.80;14.10
35445;DHT22;21562;49.476;6.086;2024-03-08T03:34:33;6.90;8.50
35445;DHT22;21562;49.476;6.086;2024-03-08T03:37:02;6.90;8.80
35445;DHT22;21562;49.476;6.086;2024-03-08T03:39:28;6.90;4.90
35445;DHT22;21562;49.476;6.086;2024-03-08T03:41:57;6.90;8.10
35445;DHT22;21562;49.476;6.086;2024-03-08T03:44:24;7.10;5.90
35445;DHT22;21562;49.476;6.086;2024-03-08T03:46:49;7.10;1.00
35445;DHT22;21562;49.476;6.086;2024-03-08T03:49:18;7.00;2.20
35445;DHT22;21562;49.476;6.086;2024-03-08T03:51:43;6.90;3.90
35445;DHT22;21562;49.476;6.086;2024-03-08T03:54:10;7.00;4.60
35445;DHT22;21562;49.476;6.086;2024-03-08T03:56:36;6.80;6.50
35445;DHT22;21562;49.476;6.086;2024-03-08T03:59:01;6.90;7.70
35445;DHT22;21562;49.476;6.086;2024-03-08T04:01:27;7.00;5.10
35445;DHT22;21562;49.476;6.086;2024-03-08T04:03:53;7.30;1.00
35445;DHT22;21562;49.476;6.086;2024-03-08T04:06:18;7.00;1.00
35445;DHT22;21562;49.476;6.086;2024-03-08T04:08:44;6.90;1.00
35445;DHT22;21562;49.476;6.086;2024-03-08T04:11:10;6.70;7.00
35445;DHT22;21562;49.476;6.086;2024-03-08T04:13:36;6.80;11.60
35445;DHT22;21562;49.476;6.086;2024-03-08T04:16:02;6.70;18.50
35445;DHT22;21562;49.476;6.086;2024-03-08T04:18:28;6.50;17.30
35445;DHT22;21562;49.476;6.086;2024-03-08T04:20:54;6.50;14.60
35445;DHT22;21562;49.476;6.086;2024-03-08T04:23:20;6.40;22.70
35445;DHT22;21562;49.476;6.086;2024-03-08T04:25:46;6.40;26.10
35445;DHT22;21562;49.476;6.086;2024-03-08T04:28:11;6.50;17.00
35445;DHT22;21562;49.476;6.086;2024-03-08T04:30:40;6.50;15.10
35445;DHT22;21562;49.476;6.086;2024-03-08T04:33:06;6.60;17.40
35445;DHT22;21562;49.476;6.086;2024-03-08T04:35:32;6.50;19.90
35445;DHT22;21562;49.476;6.086;2024-03-08T04:37:58;6.30;16.40
35445;DHT22;21562;49.476;6.086;2024-03-08T04:40:24;6.30;24.70
35445;DHT22;21562;49.476;6.086;2024-03-08T04:42:51;6.20;27.10
35445;DHT22;21562;49.476;6.086;2024-03-08T04:45:17;6.20;28.90
35445;DHT22;21562;49.476;6.086;2024-03-08T04:47:43;6.30;28.20
35445;DHT22;21562;49.476;6.086;2024-03-08T04:50:09;6.30;22.00
35445;DHT22;21562;49.476;6.086;2024-03-08T04:52:35;6.30;22.40
35445;DHT22;21562;49.476;6.086;2024-03-08T04:55:04;6.50;23.00
35445;DHT22;21562;49.476;6.086;2024-03-08T04:57:30;6.30;19.50
35445;DHT22;21562;49.476;6.086;2024-03-08T04:59:57;6.30;22.10
35445;DHT22;21562;49.476;6.086;2024-03-08T05:02:24;6.60;10.50
35445;DHT22;21562;49.476;6.086;2024-03-08T05:04:50;6.40;8.80
35445;DHT22;21562;49.476;6.086;2024-03-08T05:07:16;6.50;13.10
35445;DHT22;21562;49.476;6.086;2024-03-08T05:09:43;6.60;8.90
35445;DHT22;21562;49.476;6.086;2024-03-08T05:12:16;6.70;4.40
35445;DHT22;21562;49.476;6.086;2024-03-08T05:14:42;6.50;5.40
35445;DHT22;21562;49.476;6.086;2024-03-08T05:17:09;6.50;10.60
35445;DHT22;21562;49.476;6.086;2024-03-08T05:19:36;6.50;8.90
35445;DHT22;21562;49.476;6.086;2024-03-08T05:22:02;6.50;5.30
35445;DHT22;21562;49.476;6.086;2024-03-08T05:24:28;6.50;10.40
35445;DHT22;21562;49.476;6.086;2024-03-08T05:26:55;6.40;1.00
35445;DHT22;21562;49.476;6.086;2024-03-08T05:29:21;6.10;14.50
35445;DHT22;21562;49.476;6.086;2024-03-08T05:31:50;6.00;24.60
35445;DHT22;21562;49.476;6.086;2024-03-08T05:34:18;6.10;23.50
35445;DHT22;21562;49.476;6.086;2024-03-08T05:36:45;6.00;19.80
35445;DHT22;21562;49.476;6.086;2024-03-08T05:39:15;6.00;20.20
35445;DHT22;21562;49.476;6.086;2024-03-08T05:41:44;5.90;22.40
35445;DHT22;21562;49.476;6.086;2024-03-08T05:44:11;5.90;22.70
35445;DHT22;21562;49.476;6.086;2024-03-08T05:46:38;5.70;26.20
35445;DHT22;21562;49.476;6.086;2024-03-08T05:49:05;5.70;21.00
35445;DHT22;21562;49.476;6.086;2024-03-08T05:51:36;5.70;29.90
35445;DHT22;21562;49.476;6.086;2024-03-08T05:54:02;5.90;24.90
35445;DHT22;21562;49.476;6.086;2024-03-08T05:56:29;5.60;29.60
35445;DHT22;21562;49.476;6.086;2024-03-08T05:58:55;5.80;30.80
35445;DHT22;21562;49.476;6.086;2024-03-08T06:01:20;5.80;24.30
35445;DHT22;21562;49.476;6.086;2024-03-08T06:03:47;5.70;20.60
35445;DHT22;21562;49.476;6.086;2024-03-08T06:06:14;5.70;29.90
35445;DHT22;21562;49.476;6.086;2024-03-08T06:08:43;5.70;33.50
35445;DHT22;21562;49.476;6.086;2024-03-08T06:11:09;5.60;30.00
35445;DHT22;21562;49.476;6.086;2024-03-08T06:13:35;5.60;29.80
35445;DHT22;21562;49.476;6.086;2024-03-08T06:16:01;5.60;22.00
35445;DHT22;21562;49.476;6.086;2024-03-08T06:18:31;5.70;23.80
35445;DHT22;21562;49.476;6.086;2024-03-08T06:20:57;5.70;21.20
35445;DHT22;21562;49.476;6.086;2024-03-08T06:23:23;5.80;24.40
35445;DHT22;21562;49.476;6.086;2024-03-08T06:25:48;5.80;14.60
35445;DHT22;21562;49.476;6.086;2024-03-08T06:28:14;5.90;17.20
35445;DHT22;21562;49.476;6.086;2024-03-08T06:30:40;6.00;14.00
35445;DHT22;21562;49.476;6.086;2024-03-08T06:33:06;6.00;14.10
35445;DHT22;21562;49.476;6.086;2024-03-08T06:35:36;6.10;5.10
35445;DHT22;21562;49.476;6.086;2024-03-08T06:38:04;5.90;9.20
35445;DHT22;21562;49.476;6.086;2024-03-08T06:40:30;6.00;1.80
35445;DHT22;21562;49.476;6.086;2024-03-08T06:42:55;5.90;15.00
35445;DHT22;21562;49.476;6.086;2024-03-08T06:45:21;5.70;14.40
35445;DHT22;21562;49.476;6.086;2024-03-08T06:47:48;5.70;16.50
35445;DHT22;21562;49.476;6.086;2024-03-08T06:50:14;5.80;14.80
35445;DHT22;21562;49.476;6.086;2024-03-08T06:52:41;5.90;11.30
35445;DHT22;21562;49.476;6.086;2024-03-08T06:55:08;6.00;8.60
35445;DHT22;21562;49.476;6.086;2024-03-08T06:57:38;6.10;4.10
35445;DHT22;21562;49.476;6.086;2024-03-08T07:00:09;6.20;1.00
35445;DHT22;21562;49.476;6.086;2024-03-08T07:02:46;6.20;1.00
35445;DHT22;21562;49.476;6.086;2024-03-08T07:05:14;6.00;6.60
35445;DHT22;21562;49.476;6.086;2024-03-08T07:07:42;5.90;10.00
35445;DHT22;21562;49.476;6.086;2024-03-08T07:10:08;6.00;7.90
35445;DHT22;21562;49.476;6.086;2024-03-08T07:12:37;5.90;11.30
35445;DHT22;21562;49.476;6.086;2024-03-08T07:15:05;5.90;14.50
35445;DHT22;21562;49.476;6.086;2024-03-08T07:17:31;5.90;12.30
35445;DHT22;21562;49.476;6.086;2024-03-08T07:19:59;5.70;14.20
35445;DHT22;21562;49.476;6.086;2024-03-08T07:22:32;5.80;18.40
35445;DHT22;21562;49.476;6.086;2024-03-08T07:24:58;5.80;11.70
35445;DHT22;21562;49.476;6.086;2024-03-08T07:27:33;5.90;14.30
35445;DHT22;21562;49.476;6.086;2024-03-08T07:30:00;6.00;9.40
35445;DHT22;21562;49.476;6.086;2024-03-08T07:32:26;6.20;11.10
35445;DHT22;21562;49.476;6.086;2024-03-08T07:34:55;6.40;1.00
35445;DHT22;21562;49.476;6.086;2024-03-08T07:37:21;6.30;1.00
35445;DHT22;21562;49.476;6.086;2024-03-08T07:39:47;6.10;1.20
35445;DHT22;21562;49.476;6.086;2024-03-08T07:42:13;6.00;8.60
35445;DHT22;21562;49.476;6.086;2024-03-08T07:44:39;5.90;8.30
35445;DHT22;21562;49.476;6.086;2024-03-08T07:47:05;5.80;16.80
35445;DHT22;21562;49.476;6.086;2024-03-08T07:49:35;6.00;8.00
35445;DHT22;21562;49.476;6.086;2024-03-08T07:52:00;6.00;12.50
35445;DHT22;21562;49.476;6.086;2024-03-08T07:54:27;6.30;7.10
35445;DHT22;21562;49.476;6.086;2024-03-08T07:56:52;6.40;2.30
35445;DHT22;21562;49.476;6.086;2024-03-08T09:57:58;9.90;99.90
35445;DHT22;21562;49.476;6.086;2024-03-08T10:00:56;11.40;99.90
35445;DHT22;21562;49.476;6.086;2024-03-08T10:03:23;14.00;99.90
35445;DHT22;21562;49.476;6.086;2024-03-08T10:05:49;14.70;34.00
35445;DHT22;21562;49.476;6.086;2024-03-08T10:08:15;14.80;93.00
35445;DHT22;21562;49.476;6.086;2024-03-08T10:11:10;14.70;1.00
35445;DHT22;21562;49.476;6.086;2024-03-08T10:14:59;15.10;1.00
35445;DHT22;21562;49.476;6.086;2024-03-08T10:39:52;11.80;99.90
35445;DHT22;21562;49.476;6.086;2024-03-08T10:42:28;12.20;1.00
35445;DHT22;21562;49.476;6.086;2024-03-08T10:45:15;12.40;1.00
35445;DHT22;21562;49.476;6.086;2024-03-08T10:47:53;12.30;99.90
35445;DHT22;21562;49.476;6.086;2024-03-08T10:50:23;11.80;99.90
35445;DHT22;21562;49.476;6.086;2024-03-08T12:44:57;14.60;1.00
35445;DHT22;21562;49.476;6.086;2024-03-08T12:47:25;15.50;89.70
35445;DHT22;21562;49.476;6.086;2024-03-08T12:49:54;16.60;1.00
35445;DHT22;21562;49.476;6.086;2024-03-08T12:52:20;17.20;1.00
35445;DHT22;21562;49.476;6.086;2024-03-08T12:54:46;17.30;1.00
35445;DHT22;21562;49.476;6.086;2024-03-08T12:57:13;17.90;1.00
35445;DHT22;21562;49.476;6.086;2024-03-08T12:59:39;18.00;1.00
35445;DHT22;21562;49.476;6.086;2024-03-08T13:02:19;17.90;1.00
35445;DHT22;21562;49.476;6.086;2024-03-08T15:30:13;16.70;1.00
35445;DHT22;21562;49.476;6.086;2024-03-08T15:32:48;17.00;99.90
35445;DHT22;21562;49.476;6.086;2024-03-08T15:35:22;17.60;1.00
35445;DHT22;21562;49.476;6.086;2024-03-08T15:37:48;18.40;99.90
35445;DHT22;21562;49.476;6.086;2024-03-08T15:40:15;18.30;98.40
35445;DHT22;21562;49.476;6.086;2024-03-08T15:45:15;17.80;98.40
35445;DHT22;21562;49.476;6.086;2024-03-08T15:47:42;18.10;98.90
35445;DHT22;21562;49.476;6.086;2024-03-08T15:50:09;18.30;95.60
35445;DHT22;21562;49.476;6.086;2024-03-08T15:52:38;18.00;99.70
35445;DHT22;21562;49.476;6.086;2024-03-08T15:55:14;17.80;93.70
35445;DHT22;21562;49.476;6.086;2024-03-08T15:57:49;17.40;93.40
35445;DHT22;21562;49.476;6.086;2024-03-08T16:00:37;16.90;93.60
35445;DHT22;21562;49.476;6.086;2024-03-08T16:03:33;16.30;94.50
35445;DHT22;21562;49.476;6.086;2024-03-08T16:06:01;15.40;95.80
35445;DHT22;21562;49.476;6.086;2024-03-08T16:14:19;14.60;40.00
35445;DHT22;21562;49.476;6.086;2024-03-08T16:19:38;13.90;1.00
35445;DHT22;21562;49.476;6.086;2024-03-08T16:22:07;13.70;99.90
35445;DHT22;21562;49.476;6.086;2024-03-08T16:24:32;13.70;1.00
35445;DHT22;21562;49.476;6.086;2024-03-08T16:27:13;13.70;99.90
35445;DHT22;21562;49.476;6.086;2024-03-08T16:36:22;13.80;1.00
35445;DHT22;21562;49.476;6.086;2024-03-08T16:38:52;13.70;1.00
35445;DHT22;21562;49.476;6.086;2024-03-08T17:27:39;13.00;99.90
35445;DHT22;21562;49.476;6.086;2024-03-08T17:30:32;12.90;1.00
35445;DHT22;21562;49.476;6.086;2024-03-08T17:33:04;12.70;1.00
35445;DHT22;21562;49.476;6.086;2024-03-08T17:35:39;12.80;99.90
35445;DHT22;21562;49.476;6.086;2024-03-08T17:38:12;12.80;1.00
35445;DHT22;21562;49.476;6.086;2024-03-08T17:40:41;12.50;99.90
35445;DHT22;21562;49.476;6.086;2024-03-08T17:43:19;12.50;53.20
35445;DHT22;21562;49.476;6.086;2024-03-08T19:46:17;11.00;1.00
35445;DHT22;21562;49.476;6.086;2024-03-08T19:59:10;11.00;1.00
35445;DHT22;21562;49.476;6.086;2024-03-08T20:01:36;10.70;1.00
35445;DHT22;21562;49.476;6.086;2024-03-08T20:17:44;10.80;1.00
35445;DHT22;21562;49.476;6.086;2024-03-08T20:20:45;10.40;1.00
35445;DHT22;21562;49.476;6.086;2024-03-08T20:23:59;10.60;1.00
35445;DHT22;21562;49.476;6.086;2024-03-08T20:26:06;10.60;1.00
35445;DHT22;21562;49.476;6.086;2024-03-08T20:28:36;10.70;1.00
35445;DHT22;21562;49.476;6.086;2024-03-08T20:31:04;10.70;1.00
35445;DHT22;21562;49.476;6.086;2024-03-08T20:33:30;10.80;1.00
35445;DHT22;21562;49.476;6.086;2024-03-08T20:35:57;11.00;1.00
35445;DHT22;21562;49.476;6.086;2024-03-08T20:38:31;11.10;1.00
35445;DHT22;21562;49.476;6.086;2024-03-08T20:41:02;11.10;1.00
35445;DHT22;21562;49.476;6.086;2024-03-08T20:43:51;11.00;1.00
35445;DHT22;21562;49.476;6.086;2024-03-08T20:46:46;10.70;1.00
35445;DHT22;21562;49.476;6.086;2024-03-08T20:49:15;10.60;1.00
35445;DHT22;21562;49.476;6.086;2024-03-08T20:51:45;10.50;1.00
35445;DHT22;21562;49.476;6.086;2024-03-08T20:54:13;10.30;1.00
35445;DHT22;21562;49.476;6.086;2024-03-08T20:56:41;10.40;1.00
35445;DHT22;21562;49.476;6.086;2024-03-08T20:59:07;10.40;1.00
35445;DHT22;21562;49.476;6.086;2024-03-08T21:01:35;10.30;1.00
35445;DHT22;21562;49.476;6.086;2024-03-08T21:04:04;10.40;1.00
35445;DHT22;21562;49.476;6.086;2024-03-08T21:06:31;10.40;1.00
35445;DHT22;21562;49.476;6.086;2024-03-08T21:09:00;10.50;1.00
35445;DHT22;21562;49.476;6.086;2024-03-08T21:11:25;10.40;1.00
35445;DHT22;21562;49.476;6.086;2024-03-08T21:13:52;10.20;1.00
35445;DHT22;21562;49.476;6.086;2024-03-08T21:16:19;10.30;1.00
35445;DHT22;21562;49.476;6.086;2024-03-08T21:18:45;10.20;1.00
35445;DHT22;21562;49.476;6.086;2024-03-08T21:21:10;10.20;1.00
35445;DHT22;21562;49.476;6.086;2024-03-08T21:23:37;10.30;1.00
35445;DHT22;21562;49.476;6.086;2024-03-08T21:26:03;10.40;1.00
35445;DHT22;21562;49.476;6.086;2024-03-08T21:28:36;10.40;1.00
35445;DHT22;21562;49.476;6.086;2024-03-08T21:31:05;10.60;1.00
35445;DHT22;21562;49.476;6.086;2024-03-08T21:33:31;10.60;1.00
35445;DHT22;21562;49.476;6.086;2024-03-08T21:36:00;10.60;1.00
35445;DHT22;21562;49.476;6.086;2024-03-08T21:38:31;10.70;1.00
35445;DHT22;21562;49.476;6.086;2024-03-08T21:41:01;10.80;1.00
35445;DHT22;21562;49.476;6.086;2024-03-08T21:43:37;10.90;1.00
35445;DHT22;21562;49.476;6.086;2024-03-08T21:46:14;10.70;1.00
35445;DHT22;21562;49.476;6.086;2024-03-08T21:48:41;10.60;1.00
35445;DHT22;21562;49.476;6.086;2024-03-08T21:51:10;10.60;1.00
35445;DHT22;21562;49.476;6.086;2024-03-08T21:53:38;10.70;1.00
35445;DHT22;21562;49.476;6.086;2024-03-08T21:56:14;10.80;1.00
35445;DHT22;21562;49.476;6.086;2024-03-08T21:58:40;10.80;1.00
35445;DHT22;21562;49.476;6.086;2024-03-08T22:01:06;10.50;1.00
35445;DHT22;21562;49.476;6.086;2024-03-08T22:03:35;10.30;1.00
35445;DHT22;21562;49.476;6.086;2024-03-08T22:06:01;10.40;1.00
35445;DHT22;21562;49.476;6.086;2024-03-08T22:08:35;10.50;1.00
35445;DHT22;21562;49.476;6.086;2024-03-08T22:11:03;10.70;1.00
35445;DHT22;21562;49.476;6.086;2024-03-08T22:13:31;10.60;1.00
35445;DHT22;21562;49.476;6.086;2024-03-08T22:15:57;10.60;1.00
35445;DHT22;21562;49.476;6.086;2024-03-08T22:18:23;10.70;1.00
35445;DHT22;21562;49.476;6.086;2024-03-08T22:20:52;10.70;1.00
35445;DHT22;21562;49.476;6.086;2024-03-08T22:23:18;10.50;1.00
35445;DHT22;21562;49.476;6.086;2024-03-08T22:25:49;10.20;1.00
35445;DHT22;21562;49.476;6.086;2024-03-08T22:28:15;10.00;1.00
35445;DHT22;21562;49.476;6.086;2024-03-08T22:30:43;9.90;1.00
35445;DHT22;21562;49.476;6.086;2024-03-08T22:33:09;9.90;1.00
35445;DHT22;21562;49.476;6.086;2024-03-08T22:35:36;10.00;1.00
35445;DHT22;21562;49.476;6.086;2024-03-08T22:38:02;10.00;1.00
35445;DHT22;21562;49.476;6.086;2024-03-08T22:40:32;10.30;1.00
35445;DHT22;21562;49.476;6.086;2024-03-08T22:42:58;10.40;1.00
35445;DHT22;21562;49.476;6.086;2024-03-08T22:45:24;10.40;1.00
35445;DHT22;21562;49.476;6.086;2024-03-08T22:47:49;10.60;1.00
35445;DHT22;21562;49.476;6.086;2024-03-08T22:50:16;10.60;1.00
35445;DHT22;21562;49.476;6.086;2024-03-08T22:52:43;10.70;1.00
35445;DHT22;21562;49.476;6.086;2024-03-08T22:55:14;10.90;1.00
35445;DHT22;21562;49.476;6.086;2024-03-08T22:57:44;10.50;1.00
35445;DHT22;21562;49.476;6.086;2024-03-08T23:00:11;10.40;1.00
35445;DHT22;21562;49.476;6.086;2024-03-08T23:02:50;10.50;1.00
35445;DHT22;21562;49.476;6.086;2024-03-08T23:05:18;10.50;1.00
35445;DHT22;21562;49.476;6.086;2024-03-08T23:07:45;10.40;1.00
35445;DHT22;21562;49.476;6.086;2024-03-08T23:10:11;10.20;1.00
35445;DHT22;21562;49.476;6.086;2024-03-08T23:12:42;10.10;1.00
35445;DHT22;21562;49.476;6.086;2024-03-08T23:15:09;10.30;1.00
35445;DHT22;21562;49.476;6.086;2024-03-08T23:17:46;10.40;99.90
35445;DHT22;21562;49.476;6.086;2024-03-08T23:20:19;10.50;99.90
35445;DHT22;21562;49.476;6.086;2024-03-08T23:22:49;10.40;99.90
35445;DHT22;21562;49.476;6.086;2024-03-08T23:25:22;10.20;99.90
35445;DHT22;21562;49.476;6.086;2024-03-08T23:27:55;9.80;99.90
35445;DHT22;21562;49.476;6.086;2024-03-08T23:30:21;9.70;99.90
35445;DHT22;21562;49.476;6.086;2024-03-08T23:32:52;9.80;99.90
35445;DHT22;21562;49.476;6.086;2024-03-08T23:35:23;9.80;99.90
35445;DHT22;21562;49.476;6.086;2024-03-08T23:37:49;9.90;99.90
35445;DHT22;21562;49.476;6.086;2024-03-08T23:40:16;10.00;99.90
35445;DHT22;21562;49.476;6.086;2024-03-08T23:42:44;9.80;99.90
35445;DHT22;21562;49.476;6.086;2024-03-08T23:45:11;9.60;99.90
35445;DHT22;21562;49.476;6.086;2024-03-08T23:47:50;9.70;99.90
35445;DHT22;21562;49.476;6.086;2024-03-08T23:50:19;9.60;99.90
35445;DHT22;21562;49.476;6.086;2024-03-08T23:52:55;9.30;99.90
35445;DHT22;21562;49.476;6.086;2024-03-08T23:55:22;9.40;99.90
35445;DHT22;21562;49.476;6.086;2024-03-08T23:58:03;9.20;99.90
